createdAt,value
2023-04-01T00:01:49.916Z,6.22
2023-04-01T00:04:19.071Z,4.30
2023-04-01T00:06:49.117Z,10.45
2023-04-01T00:09:18.026Z,6.75
2023-04-01T00:11:47.853Z,10.35
2023-04-01T00:14:16.657Z,12.07
2023-04-01T00:16:46.959Z,6.57
2023-04-01T00:19:16.705Z,6.60
2023-04-01T00:21:46.310Z,7.80
2023-04-01T00:24:15.119Z,7.25
2023-04-01T00:26:45.068Z,3.75
2023-04-01T00:29:14.450Z,5.13
2023-04-01T00:31:43.307Z,3.17
2023-04-01T00:34:14.213Z,5.18
2023-04-01T00:36:43.058Z,6.18
2023-04-01T00:39:12.052Z,5.65
2023-04-01T00:41:41.263Z,5.07
2023-04-01T00:44:22.730Z,5.25
2023-04-01T00:46:53.506Z,5.40
2023-04-01T00:49:28.996Z,3.03
2023-04-01T00:52:01.394Z,2.72
2023-04-01T00:54:31.913Z,2.17
2023-04-01T00:57:03.750Z,3.97
2023-04-01T00:59:35.604Z,8.00
2023-04-01T01:02:07.366Z,2.88
2023-04-01T01:04:38.049Z,4.00
2023-04-01T01:07:21.308Z,2.08
2023-04-01T01:09:57.951Z,3.38
2023-04-01T01:12:32.354Z,2.97
2023-04-01T01:15:09.707Z,2.42
2023-04-01T01:17:48.157Z,2.75
2023-04-01T01:20:48.964Z,7.15
2023-04-01T01:23:50.234Z,7.97
2023-04-01T01:26:46.868Z,4.07
2023-04-01T01:29:44.219Z,3.45
2023-04-01T01:32:25.281Z,1.58
2023-04-01T01:35:06.293Z,1.77
2023-04-01T01:37:36.020Z,1.17
2023-04-01T01:40:08.099Z,3.47
2023-04-01T01:42:41.247Z,4.10
2023-04-01T01:45:12.261Z,4.20
2023-04-01T01:47:42.881Z,3.95
2023-04-01T01:50:14.330Z,3.20
2023-04-01T01:52:43.330Z,2.65
2023-04-01T01:55:30.196Z,4.85
2023-04-01T01:58:04.139Z,5.60
2023-04-01T02:00:33.752Z,5.93
2023-04-01T02:03:03.534Z,7.28
2023-04-01T02:05:34.747Z,4.20
2023-04-01T02:08:14.204Z,5.45
2023-04-01T02:10:47.464Z,5.75
2023-04-01T02:13:24.682Z,7.22
2023-04-01T02:16:01.162Z,8.48
2023-04-01T02:18:31.949Z,10.68
2023-04-01T02:21:05.908Z,8.20
2023-04-01T02:23:36.655Z,8.10
2023-04-01T02:26:08.607Z,7.20
2023-04-01T02:28:40.474Z,4.90
2023-04-01T02:31:12.270Z,5.43
2023-04-01T02:33:41.991Z,6.75
2023-04-01T02:36:15.364Z,7.30
2023-04-01T02:38:46.390Z,5.57
2023-04-01T02:41:15.508Z,7.93
2023-04-01T02:43:44.321Z,3.65
2023-04-01T02:46:13.197Z,8.15
2023-04-01T02:48:42.198Z,8.57
2023-04-01T02:51:11.547Z,7.53
2023-04-01T02:53:41.824Z,6.28
2023-04-01T02:56:10.569Z,5.70
2023-04-01T02:58:39.312Z,6.03
2023-04-01T03:01:09.365Z,6.93
2023-04-01T03:03:38.331Z,5.18
2023-04-01T03:06:08.380Z,7.18
2023-04-01T03:08:37.214Z,6.63
2023-04-01T03:11:07.583Z,5.30
2023-04-01T03:13:38.708Z,5.80
2023-04-01T03:16:07.775Z,4.40
2023-04-01T03:18:37.872Z,6.10
2023-04-01T03:21:17.683Z,7.38
2023-04-01T03:23:46.569Z,6.10
2023-04-01T03:26:16.949Z,5.90
2023-04-01T03:28:45.902Z,5.68
2023-04-01T03:31:15.703Z,6.65
2023-04-01T03:33:51.328Z,8.38
2023-04-01T03:36:20.504Z,9.77
2023-04-01T03:38:49.727Z,10.98
2023-04-01T03:41:26.552Z,7.30
2023-04-01T03:43:56.076Z,10.32
2023-04-01T03:46:25.253Z,6.78
2023-04-01T03:48:54.281Z,9.52
2023-04-01T03:51:23.233Z,11.65
2023-04-01T03:53:52.277Z,9.77
2023-04-01T03:56:21.304Z,13.60
2023-04-01T03:58:51.551Z,15.25
2023-04-01T04:01:21.867Z,10.25
2023-04-01T04:03:53.740Z,12.40
2023-04-01T04:06:24.410Z,7.72
2023-04-01T04:08:54.536Z,9.50
2023-04-01T04:11:24.665Z,7.03
2023-04-01T04:13:57.338Z,8.70
2023-04-01T04:16:27.380Z,10.02
2023-04-01T04:19:00.991Z,9.82
2023-04-01T04:21:29.940Z,8.05
2023-04-01T04:24:00.510Z,11.10
2023-04-01T04:26:31.006Z,9.27
2023-04-01T04:29:04.111Z,8.20
2023-04-01T04:31:33.430Z,5.38
2023-04-01T04:34:03.036Z,7.30
2023-04-01T04:36:36.282Z,6.40
2023-04-01T04:39:05.385Z,4.25
2023-04-01T04:41:38.805Z,7.55
2023-04-01T04:44:09.323Z,8.90
2023-04-01T04:46:40.301Z,5.43
2023-04-01T04:49:16.721Z,5.00
2023-04-01T04:51:46.104Z,6.30
2023-04-01T04:54:17.426Z,3.45
2023-04-01T04:56:59.623Z,4.38
2023-04-01T04:59:32.898Z,5.47
2023-04-01T05:02:15.284Z,3.63
2023-04-01T05:04:44.278Z,4.93
2023-04-01T05:07:13.695Z,4.32
2023-04-01T05:09:43.130Z,6.60
2023-04-01T05:12:13.899Z,4.30
2023-04-01T05:15:02.130Z,4.20
2023-04-01T05:17:31.367Z,3.60
2023-04-01T05:20:00.495Z,4.05
2023-04-01T05:22:30.292Z,5.75
2023-04-01T05:24:59.129Z,6.07
2023-04-01T05:27:28.322Z,4.07
2023-04-01T05:29:57.429Z,6.93
2023-04-01T05:32:45.014Z,3.90
2023-04-01T05:35:14.023Z,5.30
2023-04-01T05:37:43.000Z,6.28
2023-04-01T05:40:12.774Z,7.47
2023-04-01T05:42:41.477Z,4.97
2023-04-01T05:45:11.206Z,6.22
2023-04-01T05:48:01.759Z,9.88
2023-04-01T05:50:34.596Z,9.32
2023-04-01T05:53:04.640Z,7.88
2023-04-01T05:55:33.695Z,8.90
2023-04-01T05:58:02.707Z,9.45
2023-04-01T06:00:32.401Z,9.38
2023-04-01T06:03:04.185Z,6.93
2023-04-01T06:05:41.256Z,10.68
2023-04-01T06:08:13.931Z,9.18
2023-04-01T06:10:57.537Z,8.05
2023-04-01T06:13:40.488Z,12.13
2023-04-01T06:16:20.802Z,8.50
2023-04-01T06:19:15.628Z,7.30
2023-04-01T06:22:21.893Z,8.95
2023-04-01T06:25:07.294Z,8.05
2023-04-01T06:27:48.220Z,8.95
2023-04-01T06:30:35.045Z,8.75
2023-04-01T06:33:27.233Z,9.52
2023-04-01T06:36:21.506Z,8.38
2023-04-01T06:39:05.204Z,9.48
2023-04-01T06:42:07.808Z,7.82
2023-04-01T06:44:47.436Z,7.75
2023-04-01T06:47:48.610Z,9.25
2023-04-01T06:50:44.970Z,7.72
2023-04-01T06:53:41.748Z,10.60
2023-04-01T06:59:15.062Z,9.20
2023-04-01T07:01:47.946Z,8.50
2023-04-01T07:04:21.774Z,8.90
2023-04-01T07:06:55.381Z,7.75
2023-04-01T07:09:30.093Z,7.28
2023-04-01T07:12:38.864Z,5.88
2023-04-01T07:15:40.823Z,8.63
2023-04-01T07:18:18.331Z,5.85
2023-04-01T07:20:48.284Z,4.95
2023-04-01T07:23:25.399Z,3.95
2023-04-01T07:26:16.386Z,6.53
2023-04-01T07:29:13.868Z,3.97
2023-04-01T07:32:01.524Z,5.38
2023-04-01T07:34:34.044Z,3.33
2023-04-01T07:39:47.971Z,3.47
2023-04-01T07:42:36.341Z,4.43
2023-04-01T07:45:15.634Z,4.85
2023-04-01T07:48:04.190Z,2.90
2023-04-01T07:50:36.439Z,3.60
2023-04-01T07:55:48.773Z,3.00
2023-04-01T07:58:29.011Z,2.85
2023-04-01T08:01:05.737Z,3.28
2023-04-01T08:03:59.696Z,2.58
2023-04-01T08:06:34.709Z,1.38
2023-04-01T08:09:13.986Z,1.40
2023-04-01T08:12:26.966Z,1.90
2023-04-01T08:15:23.643Z,1.70
2023-04-01T08:18:05.295Z,2.33
2023-04-01T08:20:40.470Z,1.63
2023-04-01T08:23:15.594Z,1.33
2023-04-01T08:25:52.537Z,1.80
2023-04-01T08:28:27.882Z,1.75
2023-04-01T08:31:03.493Z,2.33
2023-04-01T08:33:34.383Z,2.20
2023-04-01T08:36:10.628Z,3.10
2023-04-01T08:38:45.399Z,1.70
2023-04-01T08:41:39.654Z,2.25
2023-04-01T08:45:31.728Z,1.45
2023-04-01T08:48:33.368Z,2.67
2023-04-01T08:51:22.520Z,2.58
2023-04-01T08:54:06.740Z,1.65
2023-04-01T08:56:42.414Z,1.77
2023-04-01T08:59:42.273Z,1.75
2023-04-01T09:03:05.382Z,1.85
2023-04-01T09:06:00.127Z,0.80
2023-04-01T09:08:47.740Z,1.50
2023-04-01T09:11:30.629Z,1.38
2023-04-01T09:14:55.062Z,1.83
2023-04-01T09:17:57.654Z,1.75
2023-04-01T09:21:00.657Z,1.70
2023-04-01T09:23:43.138Z,1.95
2023-04-01T09:26:37.648Z,2.28
2023-04-01T09:29:21.190Z,4.45
2023-04-01T09:32:15.845Z,3.03
2023-04-01T09:34:56.777Z,3.63
2023-04-01T09:37:37.903Z,3.38
2023-04-01T09:40:26.292Z,1.77
2023-04-01T09:43:18.664Z,3.75
2023-04-01T09:45:58.546Z,3.40
2023-04-01T09:49:02.636Z,3.63
2023-04-01T09:51:39.663Z,4.68
2023-04-01T09:54:27.279Z,2.55
2023-04-01T09:57:32.557Z,4.53
2023-04-01T10:01:05.617Z,4.60
2023-04-01T10:04:09.814Z,4.38
2023-04-01T10:07:17.955Z,3.10
2023-04-01T10:10:27.143Z,2.42
2023-04-01T10:13:30.693Z,2.22
2023-04-01T10:16:50.101Z,2.00
2023-04-01T10:44:59.148Z,3.47
2023-04-01T10:48:10.621Z,2.00
2023-04-01T10:51:07.315Z,3.50
2023-04-01T10:56:41.011Z,2.10
2023-04-01T11:00:04.661Z,1.33
2023-04-01T11:03:33.288Z,1.65
2023-04-01T11:06:48.371Z,2.95
2023-04-01T11:10:01.283Z,2.40
2023-04-01T11:13:05.669Z,1.48
2023-04-01T11:16:18.396Z,1.80
2023-04-01T11:19:24.427Z,1.85
2023-04-01T11:22:14.689Z,1.42
2023-04-01T11:25:24.283Z,1.48
2023-04-01T11:28:41.580Z,1.88
2023-04-01T11:31:43.486Z,2.85
2023-04-01T11:34:27.045Z,2.85
2023-04-01T11:37:09.391Z,3.75
2023-04-01T11:39:52.009Z,5.85
2023-04-01T11:43:03.165Z,3.65
2023-04-01T11:46:12.130Z,2.92
2023-04-01T11:48:53.851Z,2.00
2023-04-01T11:51:50.008Z,3.38
2023-04-01T11:54:34.656Z,2.63
2023-04-01T11:57:23.848Z,1.85
2023-04-01T12:00:41.186Z,1.58
2023-04-01T12:03:29.456Z,2.22
2023-04-01T12:06:07.451Z,1.33
2023-04-01T12:08:54.474Z,1.77
2023-04-01T12:11:33.476Z,4.35
2023-04-01T12:14:11.382Z,2.60
2023-04-01T12:16:55.319Z,2.05
2023-04-01T12:19:35.042Z,2.38
2023-04-01T12:22:23.043Z,1.83
2023-04-01T12:25:01.114Z,1.88
2023-04-01T12:27:42.642Z,1.83
2023-04-01T12:30:31.005Z,2.53
2023-04-01T12:33:16.878Z,3.28
2023-04-01T12:35:58.683Z,1.98
2023-04-01T12:38:36.963Z,4.00
2023-04-01T12:41:11.883Z,2.35
2023-04-01T12:44:15.160Z,3.15
2023-04-01T12:46:55.168Z,4.13
2023-04-01T12:49:49.571Z,5.45
2023-04-01T12:52:27.964Z,2.28
2023-04-01T12:55:32.680Z,1.60
2023-04-01T12:58:29.172Z,2.92
2023-04-01T13:01:22.452Z,2.25
2023-04-01T13:04:31.709Z,7.70
2023-04-01T13:07:24.452Z,2.30
2023-04-01T13:09:59.672Z,3.58
2023-04-01T13:12:50.991Z,6.57
2023-04-01T13:15:42.538Z,3.80
2023-04-01T13:18:35.795Z,7.00
2023-04-01T13:21:14.871Z,2.25
2023-04-01T13:23:56.746Z,2.22
2023-04-01T13:26:32.322Z,3.38
2023-04-01T13:29:09.123Z,4.00
2023-04-01T13:31:52.763Z,3.72
2023-04-01T13:34:38.578Z,9.52
2023-04-01T13:37:20.181Z,2.47
2023-04-01T13:40:07.636Z,1.95
2023-04-01T13:42:46.752Z,1.38
2023-04-01T13:45:20.683Z,1.60
2023-04-01T13:48:29.386Z,2.42
2023-04-01T13:51:22.577Z,1.85
2023-04-01T13:54:17.203Z,1.52
2023-04-01T13:56:53.320Z,2.00
2023-04-01T13:59:48.453Z,2.08
2023-04-01T14:02:34.310Z,2.95
2023-04-01T14:05:41.769Z,3.03
2023-04-01T14:08:22.928Z,1.70
2023-04-01T14:10:59.080Z,3.47
2023-04-01T14:13:35.242Z,1.52
2023-04-01T14:16:25.660Z,1.67
2023-04-01T14:19:14.571Z,2.70
2023-04-01T14:21:49.089Z,1.73
2023-04-01T14:24:43.931Z,1.52
2023-04-01T14:27:29.171Z,1.88
2023-04-01T14:30:09.973Z,2.28
2023-04-01T14:32:49.913Z,2.45
2023-04-01T14:35:30.083Z,1.50
2023-04-01T14:38:23.539Z,0.90
2023-04-01T14:40:58.506Z,2.13
2023-04-01T14:43:51.302Z,3.78
2023-04-01T14:46:35.326Z,3.50
2023-04-01T14:49:06.652Z,4.95
2023-04-01T14:51:39.476Z,4.22
2023-04-01T14:54:14.300Z,4.45
2023-04-01T14:56:46.886Z,1.98
2023-04-01T14:59:29.430Z,2.58
2023-04-01T15:02:05.346Z,0.95
2023-04-01T15:04:45.961Z,4.50
2023-04-01T15:07:37.624Z,1.67
2023-04-01T15:10:20.971Z,2.03
2023-04-01T15:12:58.399Z,1.77
2023-04-01T15:15:41.678Z,1.60
2023-04-01T15:18:14.747Z,3.33
2023-04-01T15:21:11.445Z,1.55
2023-04-01T15:23:52.481Z,2.95
2023-04-01T15:26:50.348Z,3.88
2023-04-01T15:30:02.183Z,2.83
2023-04-01T15:32:43.566Z,5.85
2023-04-01T15:35:23.673Z,3.60
2023-04-01T15:37:57.495Z,3.83
2023-04-01T15:40:32.037Z,3.05
2023-04-01T15:43:15.282Z,1.52
2023-04-01T15:45:53.733Z,3.58
2023-04-01T15:48:48.333Z,1.15
2023-04-01T15:51:30.552Z,2.03
2023-04-01T15:54:26.067Z,2.67
2023-04-01T15:57:08.736Z,3.05
2023-04-01T16:00:00.565Z,2.65
2023-04-01T16:02:36.435Z,2.72
2023-04-01T16:05:16.814Z,2.03
2023-04-01T16:07:59.739Z,6.88
2023-04-01T16:10:46.988Z,3.53
2023-04-01T16:13:26.918Z,1.58
2023-04-01T16:16:06.068Z,3.22
2023-04-01T16:18:53.752Z,1.67
2023-04-01T16:21:37.901Z,17.02
2023-04-01T16:24:17.145Z,3.65
2023-04-01T16:26:53.096Z,3.13
2023-04-01T16:29:31.131Z,3.13
2023-04-01T16:32:14.015Z,6.60
2023-04-01T16:34:49.892Z,2.05
2023-04-01T16:37:23.180Z,2.45
2023-04-01T16:39:56.404Z,15.88
2023-04-01T16:42:36.406Z,2.22
2023-04-01T16:45:21.541Z,2.00
2023-04-01T16:47:52.219Z,2.58
2023-04-01T16:50:25.141Z,2.85
2023-04-01T16:53:04.695Z,1.40
2023-04-01T16:55:43.408Z,2.28
2023-04-01T16:58:16.494Z,4.03
2023-04-01T17:00:52.949Z,2.55
2023-04-01T17:03:28.176Z,1.63
2023-04-01T17:06:22.707Z,4.55
2023-04-01T17:09:05.787Z,4.97
2023-04-01T17:11:41.448Z,6.55
2023-04-01T17:14:22.254Z,3.03
2023-04-01T17:17:08.440Z,3.80
2023-04-01T17:19:51.839Z,2.55
2023-04-01T17:22:46.339Z,3.92
2023-04-01T17:25:31.838Z,5.28
2023-04-01T17:28:07.141Z,3.92
2023-04-01T17:30:41.080Z,3.15
2023-04-01T17:33:30.323Z,3.58
2023-04-01T17:36:10.796Z,3.60
2023-04-01T17:38:59.714Z,4.05
2023-04-01T17:41:38.785Z,4.10
2023-04-01T17:44:21.039Z,3.85
2023-04-01T17:47:05.519Z,4.32
2023-04-01T17:49:41.768Z,4.65
2023-04-01T17:52:22.296Z,2.25
2023-04-01T17:54:58.546Z,3.70
2023-04-01T17:57:46.046Z,3.30
2023-04-01T18:00:25.517Z,2.83
2023-04-01T18:03:11.262Z,4.30
2023-04-01T18:05:53.453Z,3.88
2023-04-01T18:08:52.592Z,3.58
2023-04-01T18:11:36.172Z,3.85
2023-04-01T18:14:31.312Z,5.80
2023-04-01T18:17:25.640Z,3.97
2023-04-01T18:20:17.411Z,4.30
2023-04-01T18:22:50.779Z,4.40
2023-04-01T18:25:25.559Z,4.35
2023-04-01T18:28:21.156Z,5.40
2023-04-01T18:30:56.555Z,5.70
2023-04-01T18:33:31.330Z,6.65
2023-04-01T18:36:11.579Z,8.15
2023-04-01T18:38:46.991Z,6.43
2023-04-01T18:41:17.803Z,7.25
2023-04-01T18:44:01.158Z,7.05
2023-04-01T18:46:39.238Z,6.97
2023-04-01T18:49:19.271Z,7.30
2023-04-01T18:51:54.847Z,5.35
2023-04-01T18:54:28.688Z,5.43
2023-04-01T18:57:06.651Z,7.00
2023-04-01T18:59:41.498Z,9.23
2023-04-01T19:02:22.201Z,8.65
2023-04-01T19:04:59.561Z,6.68
2023-04-01T19:07:50.973Z,7.47
2023-04-01T19:10:33.417Z,9.50
2023-04-01T19:13:22.634Z,10.65
2023-04-01T19:16:01.283Z,11.88
2023-04-01T19:18:56.870Z,11.35
2023-04-01T19:21:31.801Z,8.93
2023-04-01T19:24:24.923Z,12.13
2023-04-01T19:27:02.621Z,12.57
2023-04-01T19:29:54.478Z,15.50
2023-04-01T19:32:37.233Z,17.80
2023-04-01T19:35:21.561Z,14.98
2023-04-01T19:37:56.874Z,12.70
2023-04-01T19:40:42.797Z,14.57
2023-04-01T19:43:25.265Z,16.10
2023-04-01T19:45:59.386Z,13.90
2023-04-01T19:48:46.755Z,18.02
2023-04-01T19:51:21.476Z,19.85
2023-04-01T19:53:57.604Z,16.23
2023-04-01T19:56:32.558Z,16.52
2023-04-01T19:59:10.997Z,20.52
2023-04-01T20:01:47.215Z,14.65
2023-04-01T20:04:22.938Z,21.70
2023-04-01T20:06:57.998Z,13.65
2023-04-01T20:09:45.137Z,16.58
2023-04-01T20:12:19.757Z,15.10
2023-04-01T20:14:55.376Z,14.80
2023-04-01T20:17:26.697Z,17.83
2023-04-01T20:20:01.555Z,13.93
2023-04-01T20:23:00.828Z,14.90
2023-04-01T20:25:34.948Z,14.05
2023-04-01T20:28:12.130Z,15.02
2023-04-01T20:31:02.120Z,14.20
2023-04-01T20:33:47.963Z,14.25
2023-04-01T20:36:24.189Z,19.40
2023-04-01T20:39:32.961Z,17.10
2023-04-01T20:44:43.105Z,14.32
2023-04-01T20:47:24.098Z,13.02
2023-04-01T20:50:01.506Z,15.82
2023-04-01T20:52:43.070Z,15.07
2023-04-01T20:55:33.073Z,17.63
2023-04-01T20:58:12.244Z,13.10
2023-04-01T21:00:51.740Z,14.18
2023-04-01T21:03:40.165Z,12.57
2023-04-01T21:06:46.785Z,15.98
2023-04-01T21:09:31.767Z,19.90
2023-04-01T21:12:12.445Z,16.05
2023-04-01T21:15:05.622Z,13.45
2023-04-01T21:17:44.670Z,16.00
2023-04-01T21:20:35.764Z,15.52
2023-04-01T21:23:17.705Z,20.65
2023-04-01T21:26:03.268Z,17.88
2023-04-01T21:28:50.017Z,14.52
2023-04-01T21:31:35.225Z,14.55
2023-04-01T21:34:32.218Z,18.33
2023-04-01T21:37:24.818Z,19.58
2023-04-01T21:40:08.122Z,16.13
2023-04-01T21:42:51.548Z,19.05
2023-04-01T21:45:36.434Z,19.17
2023-04-01T21:48:46.567Z,18.83
2023-04-01T21:51:58.275Z,16.50
2023-04-01T21:55:04.419Z,12.82
2023-04-01T21:58:06.322Z,15.65
2023-04-01T22:00:39.549Z,16.67
2023-04-01T22:04:07.305Z,13.52
2023-04-01T22:06:39.034Z,13.07
2023-04-01T22:09:17.557Z,16.75
2023-04-01T22:17:04.751Z,16.10
2023-04-01T22:19:42.576Z,13.57
2023-04-01T22:22:19.122Z,12.43
2023-04-01T22:24:59.734Z,13.07
2023-04-01T22:27:36.112Z,13.60
2023-04-01T22:30:18.736Z,13.38
2023-04-01T22:32:51.159Z,13.48
2023-04-01T22:38:04.557Z,11.55
2023-04-01T22:40:38.502Z,13.48
2023-04-01T22:43:11.385Z,13.82
2023-04-01T22:46:07.851Z,12.63
2023-04-01T22:48:42.013Z,19.40
2023-04-01T22:51:20.088Z,15.30
2023-04-01T22:54:04.741Z,16.13
2023-04-01T22:56:40.722Z,17.23
2023-04-01T22:59:16.650Z,14.98
2023-04-01T23:01:54.151Z,18.02
2023-04-01T23:04:27.315Z,18.48
2023-04-01T23:07:02.378Z,18.30
2023-04-01T23:09:33.569Z,17.92
2023-04-01T23:12:06.843Z,18.40
2023-04-01T23:14:51.535Z,17.15
2023-04-01T23:17:36.397Z,16.65
2023-04-01T23:20:17.859Z,15.13
2023-04-01T23:22:55.857Z,14.38
2023-04-01T23:25:39.873Z,15.38
2023-04-01T23:28:27.664Z,16.48
2023-04-01T23:30:56.653Z,15.57
2023-04-01T23:33:31.674Z,14.68
2023-04-01T23:36:08.072Z,16.58
2023-04-01T23:38:38.958Z,16.92
2023-04-01T23:41:08.637Z,15.02
2023-04-01T23:43:40.871Z,15.75
2023-04-01T23:46:10.190Z,14.02
2023-04-01T23:48:42.704Z,14.80
2023-04-01T23:53:47.028Z,14.70
2023-04-01T23:56:18.367Z,16.45
2023-04-01T23:58:50.158Z,15.23
